Time;durP1;ratioP1;P1;durP2;ratioP2;P2;SDS_P1;SDS_P2;PMS_P1;PMS_P2;Temp;Humidity;BMP_temperature;BMP_pressure;BME280_temperature;BME280_humidity;BME280_pressure;Samples;Min_cycle;Max_cycle;Signal;HPM_P1;HPM_P2
2022/05/19 00:02:08;;;;;;;8.70;6.95;;;21.10;67.60;;;;;;5040241;28;20480;-68
2022/05/19 00:04:34;;;;;;;7.82;5.72;;;21.00;67.60;;;;;;5042347;28;20067;-68
2022/05/19 00:07:00;;;;;;;7.57;5.43;;;21.10;67.70;;;;;;5042520;28;20025;-68
2022/05/19 00:09:26;;;;;;;8.80;5.78;;;21.10;67.50;;;;;;5041938;28;20373;-68
2022/05/19 00:11:53;;;;;;;11.35;6.43;;;21.10;67.20;;;;;;5041273;28;20483;-68
2022/05/19 00:14:18;;;;;;;8.82;6.38;;;21.10;67.30;;;;;;5042397;28;20040;-68
2022/05/19 00:16:45;;;;;;;9.13;7.72;;;21.10;67.40;;;;;;5042960;28;20025;-68
2022/05/19 00:19:11;;;;;;;10.95;7.25;;;21.20;67.70;;;;;;5042370;28;20484;-68
2022/05/19 00:21:38;;;;;;;10.75;7.78;;;21.20;67.60;;;;;;5036765;28;20048;-68
2022/05/19 00:24:04;;;;;;;12.68;7.45;;;21.10;67.80;;;;;;5042951;28;20025;-68
2022/05/19 00:26:29;;;;;;;12.02;8.25;;;21.10;68.00;;;;;;5040163;28;20041;-68
2022/05/19 00:28:55;;;;;;;9.82;7.28;;;21.20;68.20;;;;;;5041812;28;20025;-69
2022/05/19 00:31:20;;;;;;;11.27;8.90;;;21.10;68.30;;;;;;5038694;28;20071;-68
2022/05/19 00:33:46;;;;;;;12.82;9.63;;;21.10;68.60;;;;;;5043051;28;20060;-68
2022/05/19 00:36:14;;;;;;;13.73;10.07;;;21.00;69.00;;;;;;5043301;28;20029;-68
2022/05/19 00:38:41;;;;;;;10.93;8.95;;;21.00;69.40;;;;;;5041522;28;20073;-68
2022/05/19 00:41:08;;;;;;;13.57;10.63;;;21.00;69.40;;;;;;5040474;28;20033;-67
2022/05/19 00:43:36;;;;;;;11.73;9.00;;;20.90;69.60;;;;;;5039872;28;20030;-69
2022/05/19 00:46:07;;;;;;;14.13;10.63;;;21.00;69.70;;;;;;5042179;28;20029;-69
2022/05/19 00:49:19;;;;;;;14.98;11.43;;;20.90;70.20;;;;;;5042519;28;20025;-68
2022/05/19 00:51:56;;;;;;;15.55;11.98;;;20.90;70.50;;;;;;5031820;28;20037;-68
2022/05/19 00:54:27;;;;;;;15.68;11.02;;;20.80;70.70;;;;;;5040262;28;20088;-68
2022/05/19 00:57:03;;;;;;;18.13;12.98;;;20.80;70.80;;;;;;5040514;28;20041;-69
2022/05/19 00:59:40;;;;;;;16.83;12.50;;;20.80;71.10;;;;;;5037583;28;20402;-69
2022/05/19 01:02:09;;;;;;;17.50;12.52;;;20.80;71.30;;;;;;5039681;28;20111;-69
2022/05/19 01:04:40;;;;;;;16.70;14.27;;;20.70;71.60;;;;;;5041002;28;20018;-69
2022/05/19 01:07:10;;;;;;;16.92;12.50;;;20.70;72.50;;;;;;5040187;28;20458;-69
2022/05/19 01:09:38;;;;;;;18.38;14.23;;;20.60;72.10;;;;;;5039885;28;20033;-67
2022/05/19 01:12:06;;;;;;;15.48;13.07;;;20.60;72.40;;;;;;5035184;28;20451;-67
2022/05/19 01:14:32;;;;;;;21.08;15.27;;;20.60;72.60;;;;;;5035529;28;20014;-67
2022/05/19 01:16:58;;;;;;;20.25;14.27;;;20.60;72.60;;;;;;5042251;28;20025;-67
2022/05/19 01:19:38;;;;;;;16.38;13.23;;;20.60;72.80;;;;;;5038940;28;20032;-68
2022/05/19 01:22:36;;;;;;;16.08;12.95;;;20.60;72.70;;;;;;5038883;28;20664;-68
2022/05/19 01:25:33;;;;;;;16.52;12.40;;;20.60;72.80;;;;;;5041662;28;20029;-68
2022/05/19 01:27:59;;;;;;;17.15;12.35;;;20.60;72.80;;;;;;5038094;28;20028;-69
2022/05/19 01:30:25;;;;;;;16.10;13.65;;;20.50;72.80;;;;;;5040580;28;20033;-69
2022/05/19 01:32:54;;;;;;;15.50;12.23;;;20.50;73.10;;;;;;5038735;28;20105;-68
2022/05/19 01:35:20;;;;;;;14.32;10.20;;;20.50;73.00;;;;;;5037148;28;20512;-67
2022/05/19 01:37:45;;;;;;;14.00;11.27;;;20.50;72.80;;;;;;5037904;28;20051;-67
2022/05/19 01:40:29;;;;;;;18.23;14.00;;;20.50;72.90;;;;;;5038457;28;20060;-68
2022/05/19 01:43:13;;;;;;;15.32;12.05;;;20.50;73.00;;;;;;5041947;28;20506;-68
2022/05/19 01:46:00;;;;;;;18.48;14.05;;;20.50;72.70;;;;;;5041515;28;20041;-68
2022/05/19 01:48:50;;;;;;;17.13;12.93;;;20.50;73.10;;;;;;5041360;28;20813;-68
2022/05/19 01:51:45;;;;;;;14.65;11.60;;;20.50;73.00;;;;;;5036991;28;20029;-67
2022/05/19 01:54:22;;;;;;;14.25;10.93;;;20.40;73.00;;;;;;5033787;28;20112;-67
2022/05/19 01:56:59;;;;;;;14.48;11.35;;;20.40;73.10;;;;;;5037705;28;20032;-67
2022/05/19 01:59:50;;;;;;;14.98;13.38;;;20.40;73.10;;;;;;5037326;28;20092;-67
2022/05/19 02:02:26;;;;;;;15.73;13.02;;;20.40;73.40;;;;;;5041352;28;20037;-66
2022/05/19 02:05:14;;;;;;;18.20;12.98;;;20.40;73.40;;;;;;5037495;28;20028;-67
2022/05/19 02:07:43;;;;;;;14.48;12.02;;;20.40;73.30;;;;;;5038558;28;20033;-67
2022/05/19 02:10:18;;;;;;;14.43;11.02;;;20.40;73.40;;;;;;5049913;28;20027;-66
2022/05/19 02:12:45;;;;;;;18.55;14.32;;;20.40;73.40;;;;;;5057258;28;20112;-66
2022/05/19 02:15:13;;;;;;;13.57;11.82;;;20.40;73.70;;;;;;5042911;28;20429;-67
2022/05/19 02:17:40;;;;;;;14.68;11.65;;;20.40;73.70;;;;;;5039704;28;20587;-67
2022/05/19 02:20:13;;;;;;;13.82;10.68;;;20.40;73.60;;;;;;5042712;28;20029;-67
2022/05/19 02:22:42;;;;;;;16.73;12.68;;;20.40;73.40;;;;;;5042744;28;20392;-67
2022/05/19 02:25:27;;;;;;;16.40;13.13;;;20.40;73.50;;;;;;5042759;28;20029;-67
2022/05/19 02:28:17;;;;;;;14.13;12.02;;;20.40;73.60;;;;;;5041412;28;20032;-66
2022/05/19 02:30:44;;;;;;;14.20;11.63;;;20.40;73.40;;;;;;5041914;28;20010;-67
2022/05/19 02:33:13;;;;;;;13.98;12.45;;;20.40;73.30;;;;;;5039243;28;20033;-67
2022/05/19 02:35:39;;;;;;;13.52;11.68;;;20.40;73.20;;;;;;5035557;28;20029;-66
2022/05/19 02:38:05;;;;;;;9.63;8.00;;;20.40;73.20;;;;;;5041173;28;20029;-67
2022/05/19 02:40:34;;;;;;;11.20;8.95;;;20.40;72.90;;;;;;5039565;28;21853;-67
2022/05/19 02:43:01;;;;;;;13.00;10.20;;;20.50;72.70;;;;;;5040992;28;20610;-67
2022/05/19 02:45:28;;;;;;;12.93;10.82;;;20.50;72.70;;;;;;5052228;28;20053;-68
2022/05/19 02:47:53;;;;;;;15.13;12.25;;;20.40;72.60;;;;;;5051974;28;20017;-69
2022/05/19 02:50:21;;;;;;;14.35;11.38;;;20.50;72.60;;;;;;5042872;28;20021;-68
2022/05/19 02:52:47;;;;;;;10.48;8.77;;;20.50;72.60;;;;;;5049078;28;20053;-68
2022/05/19 02:55:13;;;;;;;11.73;10.23;;;20.50;72.50;;;;;;5048115;28;20075;-69
2022/05/19 02:57:39;;;;;;;12.45;10.45;;;20.40;72.40;;;;;;5040326;28;20021;-69
2022/05/19 03:00:09;;;;;;;12.35;9.27;;;20.40;72.60;;;;;;5043408;28;20026;-69
2022/05/19 03:02:35;;;;;;;11.73;8.95;;;20.40;72.50;;;;;;5043637;28;20018;-69
2022/05/19 03:05:01;;;;;;;14.23;10.68;;;20.50;72.30;;;;;;5044548;28;20104;-69
2022/05/19 03:07:26;;;;;;;12.18;9.85;;;20.50;72.20;;;;;;5042576;28;20041;-69
2022/05/19 03:09:52;;;;;;;15.48;10.95;;;20.50;72.10;;;;;;5043943;28;20032;-69
2022/05/19 03:12:19;;;;;;;12.68;10.48;;;20.50;72.10;;;;;;5042617;28;20430;-68
2022/05/19 03:14:44;;;;;;;10.60;8.77;;;20.50;72.10;;;;;;5043373;28;20053;-69
2022/05/19 03:17:11;;;;;;;12.35;10.52;;;20.50;72.00;;;;;;5047475;28;20059;-68
2022/05/19 03:19:37;;;;;;;9.43;7.68;;;20.50;71.90;;;;;;5040935;28;20885;-68
2022/05/19 03:22:05;;;;;;;13.73;11.65;;;20.60;71.80;;;;;;5043622;28;20029;-68
2022/05/19 03:24:30;;;;;;;11.20;9.82;;;20.60;71.60;;;;;;5043638;28;20502;-68
2022/05/19 03:26:56;;;;;;;12.88;9.75;;;20.60;71.50;;;;;;5043216;28;20021;-69
2022/05/19 03:29:22;;;;;;;10.20;8.30;;;20.60;71.30;;;;;;5039244;28;20104;-68
2022/05/19 03:31:47;;;;;;;10.73;9.13;;;20.70;71.10;;;;;;5045647;28;20029;-68
2022/05/19 03:34:16;;;;;;;10.90;8.70;;;20.70;70.70;;;;;;5040488;28;20029;-68
2022/05/19 03:36:43;;;;;;;11.80;9.20;;;20.80;70.50;;;;;;5046379;28;20067;-67
2022/05/19 03:39:09;;;;;;;10.93;9.35;;;20.80;70.20;;;;;;5042184;28;20033;-68
2022/05/19 03:41:34;;;;;;;12.45;9.43;;;20.80;70.40;;;;;;5045027;28;20502;-68
2022/05/19 03:44:00;;;;;;;10.85;9.30;;;20.70;70.40;;;;;;5044327;28;20101;-68
2022/05/19 03:46:25;;;;;;;9.23;7.57;;;20.70;70.10;;;;;;5044309;28;20025;-67
2022/05/19 03:48:51;;;;;;;9.93;7.97;;;20.80;70.10;;;;;;5041773;28;20048;-67
2022/05/19 03:51:23;;;;;;;9.80;7.35;;;20.80;69.90;;;;;;5042897;28;20025;-68
2022/05/19 03:53:50;;;;;;;11.18;8.02;;;20.90;69.60;;;;;;5042437;28;20533;-68
2022/05/19 03:56:17;;;;;;;8.15;6.35;;;21.00;69.40;;;;;;5038736;28;20039;-68
2022/05/19 03:58:42;;;;;;;8.00;6.72;;;21.00;69.20;;;;;;5042468;28;20017;-68
2022/05/19 04:01:08;;;;;;;8.93;6.88;;;21.10;69.00;;;;;;5040594;28;20025;-67
2022/05/19 04:03:34;;;;;;;9.60;8.13;;;21.20;68.70;;;;;;5041350;28;20099;-67
2022/05/19 04:05:59;;;;;;;7.13;5.97;;;21.20;68.50;;;;;;5045588;28;20025;-68
2022/05/19 04:08:25;;;;;;;6.07;4.88;;;21.30;68.40;;;;;;5041387;28;20060;-68
2022/05/19 04:10:50;;;;;;;7.10;6.20;;;21.30;68.10;;;;;;5042029;28;20063;-68
2022/05/19 04:13:16;;;;;;;8.07;6.72;;;21.30;68.60;;;;;;5037359;28;20074;-69
2022/05/19 04:15:41;;;;;;;6.47;5.75;;;21.40;67.80;;;;;;5040827;28;20025;-68
2022/05/19 04:18:07;;;;;;;6.80;5.07;;;21.40;67.70;;;;;;5037522;28;20532;-67
2022/05/19 04:20:33;;;;;;;6.40;4.70;;;21.40;67.50;;;;;;5041439;28;20021;-68
2022/05/19 04:23:00;;;;;;;5.72;4.55;;;21.40;67.40;;;;;;5041485;28;20672;-68
2022/05/19 04:25:27;;;;;;;6.43;4.30;;;21.40;67.20;;;;;;5041659;28;20121;-68
2022/05/19 04:27:53;;;;;;;6.00;4.25;;;21.40;67.00;;;;;;5042754;28;20059;-68
2022/05/19 04:30:18;;;;;;;7.97;3.85;;;21.40;67.00;;;;;;5042982;28;20057;-67
2022/05/19 04:32:44;;;;;;;6.18;3.30;;;21.40;66.80;;;;;;5040379;28;20029;-67
2022/05/19 04:35:11;;;;;;;3.85;2.88;;;21.40;66.70;;;;;;5042971;28;20059;-69
2022/05/19 04:37:37;;;;;;;5.53;3.88;;;21.50;66.60;;;;;;5042703;28;20104;-68
2022/05/19 04:40:04;;;;;;;3.55;2.60;;;21.50;66.40;;;;;;5047284;28;20092;-68
2022/05/19 04:42:30;;;;;;;4.40;2.58;;;21.50;66.30;;;;;;5042218;28;20032;-68
2022/05/19 04:44:56;;;;;;;4.18;2.50;;;21.50;66.20;;;;;;5037055;28;20017;-68
2022/05/19 04:47:23;;;;;;;3.30;2.58;;;21.60;66.00;;;;;;5045647;28;20029;-68
2022/05/19 04:49:48;;;;;;;4.40;2.47;;;21.60;65.90;;;;;;5040158;28;20026;-68
2022/05/19 04:52:14;;;;;;;3.13;2.13;;;21.60;65.70;;;;;;5038657;28;20549;-68
2022/05/19 04:54:39;;;;;;;3.53;2.75;;;21.60;65.50;;;;;;5040421;28;20029;-69
2022/05/19 04:57:07;;;;;;;3.05;2.28;;;21.60;65.30;;;;;;5044718;28;20032;-68
2022/05/19 04:59:36;;;;;;;4.32;2.30;;;21.70;65.30;;;;;;5041012;28;20413;-68
2022/05/19 05:02:01;;;;;;;2.70;1.88;;;21.70;65.10;;;;;;5043537;28;20029;-68
2022/05/19 05:04:27;;;;;;;3.10;2.20;;;21.80;65.00;;;;;;5040357;28;20451;-68
2022/05/19 05:06:54;;;;;;;3.63;2.47;;;21.80;64.80;;;;;;5038940;28;20033;-67
2022/05/19 05:09:19;;;;;;;2.90;2.33;;;21.80;64.70;;;;;;5048695;28;20025;-68
2022/05/19 05:11:45;;;;;;;2.17;1.85;;;21.80;64.60;;;;;;5044083;28;20479;-69
2022/05/19 05:14:11;;;;;;;2.55;1.60;;;21.80;64.50;;;;;;5045057;28;20036;-68
2022/05/19 05:16:37;;;;;;;2.72;1.50;;;21.80;64.40;;;;;;5036224;28;20120;-68
2022/05/19 05:19:04;;;;;;;1.90;1.42;;;21.80;64.20;;;;;;5036067;28;20171;-68
2022/05/19 05:21:29;;;;;;;2.42;1.60;;;21.90;64.10;;;;;;5037447;28;20125;-66
2022/05/19 05:23:55;;;;;;;3.47;1.50;;;21.90;63.90;;;;;;5037722;28;20112;-66
2022/05/19 05:26:20;;;;;;;2.33;1.40;;;22.10;63.60;;;;;;5038394;28;20484;-66
2022/05/19 05:28:46;;;;;;;2.13;1.30;;;22.30;62.90;;;;;;5040448;28;20021;-67
2022/05/19 05:31:11;;;;;;;1.73;1.55;;;22.50;62.90;;;;;;5038600;28;20036;-69
2022/05/19 05:33:37;;;;;;;1.75;1.50;;;22.90;60.90;;;;;;5048820;28;20123;-68
2022/05/19 05:36:03;;;;;;;1.33;1.20;;;23.20;60.00;;;;;;5041087;28;20539;-67
2022/05/19 05:38:28;;;;;;;1.50;1.40;;;23.40;59.30;;;;;;5042542;28;20036;-67
2022/05/19 05:40:54;;;;;;;1.55;1.40;;;23.60;58.70;;;;;;5040554;28;20020;-67
2022/05/19 05:43:21;;;;;;;1.50;1.40;;;23.60;59.10;;;;;;5041245;28;20121;-67
2022/05/19 05:45:47;;;;;;;1.42;1.27;;;23.50;58.40;;;;;;5044363;28;21176;-68
2022/05/19 05:48:13;;;;;;;1.33;1.23;;;23.20;58.90;;;;;;5039979;28;20029;-69
2022/05/19 05:50:39;;;;;;;1.52;1.30;;;23.00;59.50;;;;;;5039103;28;20021;-68
2022/05/19 05:53:06;;;;;;;3.67;1.40;;;22.80;59.90;;;;;;5040973;28;20549;-66
2022/05/19 05:55:33;;;;;;;2.00;1.30;;;22.60;60.30;;;;;;5047888;28;20025;-67
2022/05/19 05:57:58;;;;;;;1.58;1.25;;;22.50;60.50;;;;;;5061476;28;20384;-67
2022/05/19 06:00:24;;;;;;;1.98;1.42;;;22.50;60.70;;;;;;5055742;28;20040;-66
2022/05/19 06:02:50;;;;;;;2.08;1.45;;;22.50;60.80;;;;;;5048734;28;20458;-68
2022/05/19 06:05:16;;;;;;;1.60;1.30;;;22.40;60.80;;;;;;5041553;28;20037;-68
2022/05/19 06:07:42;;;;;;;1.40;1.20;;;22.50;60.90;;;;;;5039441;28;20104;-68
2022/05/19 06:10:10;;;;;;;2.85;1.40;;;22.50;60.80;;;;;;5047041;28;20162;-67
2022/05/19 06:12:35;;;;;;;2.05;1.58;;;22.50;60.80;;;;;;5034745;28;20632;-67
2022/05/19 06:15:01;;;;;;;1.50;1.25;;;22.60;60.80;;;;;;5048428;28;20096;-69
2022/05/19 06:17:26;;;;;;;1.30;1.20;;;22.90;60.20;;;;;;5041611;28;20103;-68
2022/05/19 06:19:52;;;;;;;1.73;1.30;;;22.90;60.00;;;;;;5044440;28;20036;-66
2022/05/19 06:22:22;;;;;;;1.77;1.30;;;22.80;60.10;;;;;;5042354;28;20029;-67
2022/05/19 06:24:48;;;;;;;1.55;1.30;;;22.80;60.40;;;;;;5046816;28;20096;-68
2022/05/19 06:27:13;;;;;;;1.92;1.55;;;22.70;60.60;;;;;;5037747;28;20059;-68
2022/05/19 06:29:39;;;;;;;1.75;1.40;;;22.50;61.00;;;;;;5039089;28;20463;-68
2022/05/19 06:32:05;;;;;;;1.90;1.30;;;22.40;61.40;;;;;;5042793;28;20044;-68
2022/05/19 06:34:30;;;;;;;2.65;1.15;;;22.40;61.60;;;;;;5043344;28;20029;-66
2022/05/19 06:36:56;;;;;;;1.20;1.10;;;22.50;61.70;;;;;;5042149;28;20545;-68
2022/05/19 06:39:21;;;;;;;1.30;1.20;;;22.60;61.70;;;;;;5047035;28;20092;-68
2022/05/19 06:42:02;;;;;;;1.67;1.40;;;22.60;61.70;;;;;;5044055;28;20029;-69
2022/05/19 06:44:38;;;;;;;2.45;1.30;;;22.50;62.00;;;;;;5040927;28;20025;-67
2022/05/19 06:47:10;;;;;;;1.85;1.65;;;22.40;62.20;;;;;;5042881;28;20178;-68
2022/05/19 06:49:36;;;;;;;2.13;1.58;;;22.30;62.40;;;;;;5048752;28;20095;-67
2022/05/19 06:52:02;;;;;;;2.45;1.52;;;22.20;62.60;;;;;;5041340;28;20636;-67
2022/05/19 06:54:28;;;;;;;1.83;1.48;;;22.20;62.80;;;;;;5044862;28;20547;-66
2022/05/19 06:56:54;;;;;;;2.00;1.55;;;22.10;62.70;;;;;;5039524;28;20116;-66
2022/05/19 06:59:22;;;;;;;4.80;1.50;;;22.10;62.70;;;;;;5046385;28;20273;-67
2022/05/19 07:01:47;;;;;;;1.55;1.33;;;22.20;62.70;;;;;;5038607;28;20029;-67
2022/05/19 07:04:15;;;;;;;1.45;1.35;;;22.20;62.60;;;;;;5050628;28;20031;-67
2022/05/19 07:06:41;;;;;;;1.70;1.30;;;22.30;62.60;;;;;;5046294;28;20396;-67
2022/05/19 07:09:06;;;;;;;1.73;1.60;;;22.50;62.20;;;;;;5052981;28;20101;-68
2022/05/19 07:11:32;;;;;;;1.70;1.50;;;22.70;61.80;;;;;;5059712;28;20079;-68
2022/05/19 07:14:01;;;;;;;1.80;1.17;;;22.80;61.50;;;;;;5047508;28;20025;-69
2022/05/19 07:16:28;;;;;;;1.70;1.40;;;23.00;61.30;;;;;;5038531;28;20476;-67
2022/05/19 07:21:42;;;;;;;4.55;1.95;;;23.10;60.80;;;;;;5051314;28;20601;-68
2022/05/19 07:24:19;;;;;;;3.33;1.67;;;23.20;61.00;;;;;;5059879;28;20094;-68
2022/05/19 07:26:47;;;;;;;1.73;1.20;;;23.30;60.60;;;;;;5025586;28;20083;-68
2022/05/19 07:29:13;;;;;;;2.17;1.50;;;23.40;60.50;;;;;;5052916;28;20021;-69
2022/05/19 07:31:40;;;;;;;1.90;1.50;;;23.50;60.30;;;;;;5043199;28;20099;-68
2022/05/19 07:34:06;;;;;;;1.50;1.40;;;23.60;60.10;;;;;;5034010;28;20025;-68
2022/05/19 07:36:34;;;;;;;2.47;1.60;;;23.70;60.00;;;;;;5038466;28;20070;-68
2022/05/19 07:39:02;;;;;;;1.50;1.40;;;23.80;59.70;;;;;;5034597;28;20045;-67
2022/05/19 07:41:29;;;;;;;2.22;1.40;;;23.90;59.50;;;;;;5042074;28;20542;-68
2022/05/19 07:43:57;;;;;;;2.10;1.48;;;24.00;59.40;;;;;;5045787;28;20392;-68
2022/05/19 07:46:24;;;;;;;2.70;1.50;;;24.10;59.30;;;;;;5039171;28;20036;-68
2022/05/19 07:48:54;;;;;;;1.45;1.30;;;24.20;59.30;;;;;;5043458;28;20021;-68
2022/05/19 07:51:23;;;;;;;1.70;1.50;;;24.30;59.10;;;;;;5041610;28;20079;-65
2022/05/19 07:53:50;;;;;;;2.08;1.20;;;24.40;58.90;;;;;;5047243;28;20021;-69
2022/05/19 07:56:15;;;;;;;2.60;1.42;;;24.40;58.60;;;;;;5041673;28;20040;-68
2022/05/19 07:58:41;;;;;;;1.40;1.25;;;24.40;58.70;;;;;;5041025;28;20025;-68
2022/05/19 08:01:07;;;;;;;2.45;1.45;;;24.40;58.70;;;;;;5043675;28;20360;-67
2022/05/19 08:03:33;;;;;;;1.83;1.27;;;24.20;58.90;;;;;;5041775;28;20086;-66
2022/05/19 08:05:59;;;;;;;1.60;1.45;;;24.30;59.20;;;;;;5034679;28;20029;-68
2022/05/19 08:08:25;;;;;;;3.80;1.90;;;24.30;58.90;;;;;;5042255;28;20035;-68
2022/05/19 08:10:57;;;;;;;1.92;1.50;;;24.20;59.10;;;;;;5046079;28;20075;-67
2022/05/19 08:16:07;;;;;;;4.93;2.25;;;24.30;59.10;;;;;;5040833;28;20266;-68
2022/05/19 08:18:33;;;;;;;3.63;1.88;;;24.50;58.60;;;;;;5042319;28;20017;-67
2022/05/19 08:21:01;;;;;;;2.38;1.63;;;24.60;58.50;;;;;;5045859;28;20476;-68
2022/05/19 08:23:27;;;;;;;2.60;2.03;;;24.80;58.00;;;;;;5040689;28;20483;-68
2022/05/19 08:25:54;;;;;;;1.90;1.60;;;25.00;57.10;;;;;;5044813;28;20115;-67
2022/05/19 08:28:20;;;;;;;3.08;1.60;;;25.20;56.70;;;;;;5039729;28;20033;-68
2022/05/19 08:30:49;;;;;;;2.35;1.50;;;25.30;56.00;;;;;;5043506;28;20052;-68
2022/05/19 08:33:16;;;;;;;3.08;1.90;;;25.50;55.80;;;;;;5037323;28;20502;-68
2022/05/19 08:35:42;;;;;;;2.78;1.85;;;25.70;55.00;;;;;;5041736;28;20028;-68
2022/05/19 08:38:08;;;;;;;1.90;1.60;;;25.80;54.80;;;;;;5040079;28;20025;-68
2022/05/19 08:40:44;;;;;;;2.45;1.77;;;26.00;54.00;;;;;;5036776;28;20021;-67
2022/05/19 08:43:11;;;;;;;5.43;2.10;;;26.10;53.70;;;;;;5034673;28;20446;-67
2022/05/19 08:45:47;;;;;;;3.30;2.50;;;26.10;53.20;;;;;;5039190;28;20036;-67
2022/05/19 08:48:24;;;;;;;2.85;2.00;;;26.10;52.80;;;;;;5038519;28;20626;-67
2022/05/19 08:51:05;;;;;;;2.67;2.10;;;26.20;52.70;;;;;;5040357;28;20502;-66
2022/05/19 08:53:35;;;;;;;2.88;2.10;;;26.20;52.40;;;;;;5044080;28;20036;-65
2022/05/19 08:56:10;;;;;;;3.75;2.25;;;26.40;52.60;;;;;;5047315;28;20113;-67
2022/05/19 08:59:05;;;;;;;2.22;2.03;;;26.60;52.20;;;;;;5035413;28;20369;-66
2022/05/19 09:01:45;;;;;;;2.85;1.90;;;26.70;52.10;;;;;;5042971;28;20422;-67
2022/05/19 09:04:18;;;;;;;4.55;2.55;;;26.90;52.10;;;;;;5039947;28;20029;-67
2022/05/19 09:10:02;;;;;;;5.70;2.55;;;26.70;51.50;;;;;;5041484;28;20024;-68
2022/05/19 09:12:32;;;;;;;2.50;2.20;;;26.70;51.40;;;;;;5044645;28;20036;-68
2022/05/19 09:14:57;;;;;;;3.65;2.50;;;26.80;51.70;;;;;;5040217;28;20784;-68
2022/05/19 09:17:28;;;;;;;5.15;2.50;;;26.80;51.30;;;;;;5040378;28;20029;-67
2022/05/19 09:19:59;;;;;;;3.67;2.70;;;26.90;51.30;;;;;;5048942;28;20029;-67
2022/05/19 09:22:29;;;;;;;3.40;2.47;;;26.70;50.60;;;;;;5042620;28;20366;-66
2022/05/19 09:24:55;;;;;;;3.97;2.10;;;26.70;51.10;;;;;;5043608;28;21002;-67
2022/05/19 09:27:22;;;;;;;3.47;2.65;;;26.80;51.40;;;;;;5041927;28;20093;-65
2022/05/19 09:29:50;;;;;;;4.50;2.80;;;26.90;51.30;;;;;;5042099;28;20431;-68
2022/05/19 09:32:22;;;;;;;3.38;2.80;;;26.90;51.60;;;;;;5035840;28;20028;-68
2022/05/19 09:34:49;;;;;;;;;;;26.80;51.70;;;;;;5037256;28;20090;-66
2022/05/19 09:37:36;;;;;;;3.00;2.70;;;26.90;52.00;;;;;;5047061;28;19908;-67
2022/05/19 09:40:27;;;;;;;4.25;3.22;;;27.20;51.60;;;;;;5036266;28;20039;-67
2022/05/19 09:43:04;;;;;;;3.70;2.58;;;27.10;51.20;;;;;;5046957;28;20025;-68
2022/05/19 09:45:37;;;;;;;4.38;2.85;;;27.30;51.40;;;;;;5041883;28;20104;-67
2022/05/19 09:48:07;;;;;;;4.30;2.78;;;27.50;51.20;;;;;;5034385;28;20021;-67
2022/05/19 09:50:47;;;;;;;3.75;2.63;;;27.60;51.10;;;;;;5031895;28;20104;-67
2022/05/19 09:53:26;;;;;;;2.63;2.03;;;27.90;50.90;;;;;;5045761;28;20075;-68
2022/05/19 09:56:10;;;;;;;4.53;2.53;;;28.00;50.80;;;;;;5044164;28;20041;-68
2022/05/19 09:58:42;;;;;;;5.72;3.13;;;27.90;49.60;;;;;;5044759;28;20052;-67
2022/05/19 10:01:19;;;;;;;3.35;2.50;;;28.00;49.80;;;;;;5036131;28;20478;-66
2022/05/19 10:03:51;;;;;;;4.20;2.47;;;28.00;49.90;;;;;;5039508;28;20030;-68
2022/05/19 10:06:32;;;;;;;2.42;1.70;;;28.00;49.70;;;;;;5044586;28;20031;-67
2022/05/19 10:09:06;;;;;;;3.53;1.55;;;28.00;49.50;;;;;;5031380;28;20025;-68
2022/05/19 10:11:32;;;;;;;3.88;2.80;;;28.00;49.50;;;;;;5039781;28;20369;-67
2022/05/19 10:14:07;;;;;;;2.67;2.00;;;27.90;48.80;;;;;;5041367;28;20020;-69
2022/05/19 10:17:13;;;;;;;2.28;1.80;;;27.60;49.10;;;;;;5053527;28;20044;-68
2022/05/19 10:20:08;;;;;;;3.45;2.28;;;27.50;49.10;;;;;;5034786;28;20120;-66
2022/05/19 10:22:53;;;;;;;3.05;1.90;;;27.50;48.80;;;;;;5039125;28;20037;-68
2022/05/19 10:25:36;;;;;;;3.53;2.10;;;27.50;48.80;;;;;;5053240;28;20022;-66
2022/05/19 10:31:39;;;;;;;3.53;2.20;;;27.80;48.30;;;;;;5038173;28;20067;-65
2022/05/19 10:34:19;;;;;;;3.28;1.80;;;27.80;48.00;;;;;;5038277;28;20025;-68
2022/05/19 10:37:06;;;;;;;3.63;2.60;;;28.00;48.20;;;;;;5040691;28;20040;-66
2022/05/19 10:39:43;;;;;;;4.03;2.40;;;28.10;48.00;;;;;;5046444;28;20131;-66
2022/05/19 10:42:43;;;;;;;4.65;3.13;;;28.00;48.50;;;;;;5034262;28;20040;-66
2022/05/19 10:45:27;;;;;;;3.95;2.40;;;27.90;48.10;;;;;;5047454;28;20024;-67
2022/05/19 10:48:28;;;;;;;4.28;2.40;;;28.00;48.40;;;;;;5045856;28;20061;-66
2022/05/19 10:51:18;;;;;;;3.65;2.60;;;28.20;48.60;;;;;;5050341;28;20442;-67
2022/05/19 10:54:24;;;;;;;3.75;2.97;;;28.30;48.40;;;;;;5037656;28;20029;-68
2022/05/19 10:57:14;;;;;;;4.75;2.65;;;28.30;48.10;;;;;;5035616;28;20127;-67
2022/05/19 10:59:43;;;;;;;2.50;2.30;;;28.40;48.30;;;;;;5042156;28;20776;-66
2022/05/19 11:02:23;;;;;;;3.80;2.90;;;28.50;48.10;;;;;;5037603;28;20041;-67
2022/05/19 11:05:06;;;;;;;3.15;2.55;;;28.50;47.90;;;;;;5037680;28;20039;-68
2022/05/19 11:07:50;;;;;;;3.63;2.60;;;28.40;47.20;;;;;;5037015;28;20480;-67
2022/05/19 11:10:35;;;;;;;3.72;2.40;;;28.40;47.30;;;;;;5040694;28;20105;-67
2022/05/19 11:13:33;;;;;;;3.63;2.13;;;28.60;47.00;;;;;;5040852;28;20476;-66
2022/05/19 11:16:25;;;;;;;2.95;2.13;;;28.80;46.80;;;;;;5036818;28;20159;-66
2022/05/19 11:18:56;;;;;;;3.35;2.22;;;28.70;46.50;;;;;;5044510;28;20025;-66
2022/05/19 11:21:26;;;;;;;5.35;2.80;;;28.70;46.50;;;;;;5052760;28;20044;-68
2022/05/19 11:24:06;;;;;;;3.55;2.55;;;28.70;46.20;;;;;;5045388;28;20032;-67
2022/05/19 11:26:36;;;;;;;2.42;2.10;;;28.80;46.50;;;;;;5051656;28;20105;-67
2022/05/19 11:29:16;;;;;;;2.05;1.73;;;28.80;46.40;;;;;;5043106;28;20060;-67
2022/05/19 11:31:48;;;;;;;4.32;2.00;;;28.90;46.40;;;;;;5040913;28;20695;-68
2022/05/19 11:34:30;;;;;;;4.90;2.10;;;28.80;46.20;;;;;;5038870;28;20036;-67
2022/05/19 11:37:34;;;;;;;2.65;1.65;;;28.90;46.40;;;;;;5046691;28;20041;-68
2022/05/19 11:40:12;;;;;;;3.40;2.30;;;28.90;46.40;;;;;;5038258;28;20037;-66
2022/05/19 11:42:52;;;;;;;2.75;2.22;;;28.70;46.30;;;;;;5039162;28;20399;-66
2022/05/19 11:45:31;;;;;;;3.00;2.08;;;28.60;46.60;;;;;;5038424;28;20025;-66
2022/05/19 11:56:42;;;;;;;3.55;2.00;;;28.00;47.80;;;;;;5037242;28;20064;-66
2022/05/19 11:59:10;;;;;;;2.70;1.90;;;27.80;48.70;;;;;;5024591;28;20112;-67
2022/05/19 12:01:43;;;;;;;4.78;2.00;;;27.60;49.50;;;;;;5022609;28;20033;-65
2022/05/19 12:04:18;;;;;;;3.22;2.50;;;27.40;50.30;;;;;;5033602;28;20029;-67
2022/05/19 12:07:13;;;;;;;2.13;1.83;;;27.10;51.60;;;;;;5035987;28;20428;-67
2022/05/19 12:09:48;;;;;;;3.67;2.70;;;26.80;52.30;;;;;;5041796;28;20183;-68
2022/05/19 12:12:23;;;;;;;4.22;2.47;;;26.50;53.30;;;;;;5036512;28;20112;-68
2022/05/19 12:15:18;;;;;;;3.38;1.80;;;26.30;54.40;;;;;;5036006;28;20155;-67
2022/05/19 12:17:54;;;;;;;4.28;2.30;;;26.10;55.10;;;;;;5035896;28;20075;-66
2022/05/19 12:20:43;;;;;;;6.68;2.90;;;25.90;56.00;;;;;;5042564;28;20449;-67
2022/05/19 12:23:17;;;;;;;6.15;2.10;;;25.70;57.90;;;;;;5044393;28;20036;-67
2022/05/19 12:25:46;;;;;;;6.65;1.95;;;25.00;59.60;;;;;;5042755;28;20055;-66
2022/05/19 12:28:14;;;;;;;5.45;1.50;;;24.10;61.90;;;;;;5047755;28;20725;-66
2022/05/19 12:34:00;;;;;;;3.50;1.10;;;21.60;66.50;;;;;;5048981;28;20915;-67
2022/05/19 12:36:41;;;;;;;1.73;0.60;;;20.50;70.20;;;;;;5045866;28;20032;-68
2022/05/19 12:39:27;;;;;;;1.63;0.75;;;20.00;71.70;;;;;;5048349;28;20029;-67
2022/05/19 12:41:56;;;;;;;2.28;0.60;;;19.70;72.50;;;;;;5044170;28;20032;-66
2022/05/19 12:44:39;;;;;;;1.75;0.60;;;19.50;73.10;;;;;;5045890;28;20033;-66
2022/05/19 12:47:19;;;;;;;1.20;0.70;;;19.40;73.50;;;;;;5040233;28;20543;-65
2022/05/19 12:50:07;;;;;;;1.33;0.85;;;19.40;73.70;;;;;;5041127;28;20021;-66
2022/05/19 12:52:55;;;;;;;1.02;0.80;;;19.40;74.30;;;;;;5041198;28;20033;-66
2022/05/19 12:55:24;;;;;;;1.17;0.80;;;19.30;75.20;;;;;;5039084;28;20017;-65
2022/05/19 12:57:56;;;;;;;1.75;1.25;;;19.30;75.60;;;;;;5039890;28;20120;-67
2022/05/19 13:00:26;;;;;;;1.25;1.00;;;19.40;76.00;;;;;;5035564;28;20037;-67
2022/05/19 13:03:11;;;;;;;1.20;0.90;;;19.40;75.80;;;;;;5045612;28;20037;-67
2022/05/19 13:05:46;;;;;;;3.28;1.67;;;19.40;75.80;;;;;;5043764;28;20033;-67
2022/05/19 13:08:36;;;;;;;2.25;1.40;;;19.50;76.20;;;;;;5043612;28;20029;-66
2022/05/19 13:11:07;;;;;;;1.75;1.15;;;19.50;76.50;;;;;;5037592;28;20021;-65
2022/05/19 13:13:41;;;;;;;3.42;1.20;;;19.50;76.70;;;;;;5043289;28;20030;-67
2022/05/19 13:16:37;;;;;;;4.95;2.25;;;19.50;76.60;;;;;;5039587;28;20036;-67
2022/05/19 13:19:33;;;;;;;4.45;1.70;;;19.50;76.80;;;;;;5044668;28;20127;-66
2022/05/19 13:22:08;;;;;;;2.90;1.48;;;19.50;77.20;;;;;;5041922;28;20499;-66
2022/05/19 13:24:36;;;;;;;3.17;1.30;;;19.40;77.40;;;;;;5047491;28;20028;-66
2022/05/19 13:32:36;;;;;;;1.92;1.30;;;19.50;76.90;;;;;;5047731;28;20167;-65
2022/05/19 13:35:23;;;;;;;1.90;1.40;;;19.60;77.00;;;;;;5042362;28;20903;-65
2022/05/19 13:37:49;;;;;;;2.03;1.60;;;19.60;77.10;;;;;;5047980;28;20025;-65